createdAt,value
2018-06-02T00:00:47.609Z,99.90
2018-06-02T00:03:13.976Z,99.90
2018-06-02T00:05:40.404Z,99.90
2018-06-02T00:08:06.779Z,99.90
2018-06-02T00:10:33.168Z,99.90
2018-06-02T00:12:59.550Z,99.90
2018-06-02T00:15:25.973Z,99.90
2018-06-02T00:17:53.133Z,99.90
2018-06-02T00:20:19.543Z,99.90
2018-06-02T00:22:45.940Z,99.90
2018-06-02T00:25:12.322Z,99.90
2018-06-02T00:27:39.460Z,99.90
2018-06-02T00:30:06.585Z,99.90
2018-06-02T00:32:32.988Z,99.90
2018-06-02T00:34:59.359Z,99.90
2018-06-02T00:37:25.756Z,99.90
2018-06-02T00:39:52.119Z,99.90
2018-06-02T00:42:18.492Z,99.90
2018-06-02T00:44:45.628Z,99.90
2018-06-02T00:47:12.057Z,99.90
2018-06-02T00:49:38.489Z,99.90
2018-06-02T00:52:04.843Z,99.90
2018-06-02T00:54:44.232Z,99.90
2018-06-02T00:57:10.611Z,99.90
2018-06-02T00:59:37.749Z,99.90
2018-06-02T01:02:04.871Z,99.90
2018-06-02T01:04:31.262Z,99.90
2018-06-02T01:06:58.384Z,99.90
2018-06-02T01:09:24.793Z,99.90
2018-06-02T01:11:51.173Z,99.90
2018-06-02T01:14:18.316Z,99.90
2018-06-02T01:16:45.440Z,99.90
2018-06-02T01:19:11.831Z,99.90
2018-06-02T01:21:38.243Z,99.90
2018-06-02T01:24:05.354Z,99.90
2018-06-02T01:26:31.752Z,99.90
2018-06-02T01:28:58.163Z,99.90
2018-06-02T01:31:25.309Z,99.90
2018-06-02T01:33:52.428Z,99.90
2018-06-02T01:36:18.827Z,99.90
2018-06-02T01:38:45.209Z,99.90
2018-06-02T01:41:11.617Z,99.90
2018-06-02T01:43:37.990Z,99.90
2018-06-02T01:46:05.126Z,99.90
2018-06-02T01:48:31.535Z,99.90
2018-06-02T01:50:57.900Z,99.90
2018-06-02T01:53:24.290Z,99.90
2018-06-02T01:55:50.672Z,99.90
2018-06-02T01:58:17.068Z,99.90
2018-06-02T02:00:43.445Z,99.90
2018-06-02T02:03:10.584Z,99.90
2018-06-02T02:05:36.963Z,99.90
2018-06-02T02:08:03.368Z,99.90
2018-06-02T02:10:30.514Z,99.90
2018-06-02T02:12:57.645Z,99.90
2018-06-02T02:15:24.036Z,99.90
2018-06-02T02:17:50.407Z,99.90
2018-06-02T02:20:16.843Z,99.90
2018-06-02T02:22:43.222Z,99.90
2018-06-02T02:25:09.623Z,99.90
2018-06-02T02:27:36.003Z,99.90
2018-06-02T02:30:02.465Z,99.90
2018-06-02T02:32:28.837Z,99.90
2018-06-02T02:34:55.972Z,99.90
2018-06-02T02:37:22.396Z,99.90
2018-06-02T02:39:48.801Z,99.90
2018-06-02T02:42:15.213Z,99.90
2018-06-02T02:44:41.599Z,99.90
2018-06-02T02:47:07.998Z,99.90
2018-06-02T02:49:34.368Z,99.90
2018-06-02T02:52:00.764Z,99.90
2018-06-02T02:54:27.136Z,99.90
2018-06-02T02:56:53.531Z,99.90
2018-06-02T02:59:19.929Z,99.90
2018-06-02T03:01:47.056Z,99.90
2018-06-02T03:04:13.481Z,99.90
2018-06-02T03:06:39.875Z,99.90
2018-06-02T03:09:06.305Z,99.90
2018-06-02T03:11:32.716Z,99.90
2018-06-02T03:13:59.863Z,99.90
2018-06-02T03:16:26.996Z,99.90
2018-06-02T03:18:53.397Z,99.90
2018-06-02T03:21:19.805Z,99.90
2018-06-02T03:23:46.222Z,99.90
2018-06-02T03:26:13.332Z,99.90
2018-06-02T03:28:39.732Z,99.90
2018-06-02T03:31:06.151Z,99.90
2018-06-02T03:33:32.524Z,99.90
2018-06-02T03:35:58.929Z,99.90
2018-06-02T03:38:25.308Z,99.90
2018-06-02T03:40:51.700Z,99.90
2018-06-02T03:43:18.088Z,99.90
2018-06-02T03:45:44.493Z,99.90
2018-06-02T03:48:10.860Z,99.90
2018-06-02T03:50:37.255Z,99.90
2018-06-02T03:53:03.661Z,99.90
2018-06-02T03:55:30.055Z,99.90
2018-06-02T03:57:56.456Z,99.90
2018-06-02T04:00:22.824Z,99.90
2018-06-02T04:02:49.231Z,99.90
2018-06-02T04:05:15.605Z,99.90
2018-06-02T04:07:41.991Z,99.90
2018-06-02T04:10:08.396Z,99.90
2018-06-02T04:12:34.787Z,99.90
2018-06-02T04:15:01.185Z,99.90
2018-06-02T04:17:27.561Z,99.90
2018-06-02T04:19:54.008Z,99.90
2018-06-02T04:22:20.397Z,99.90
2018-06-02T04:24:46.790Z,99.90
2018-06-02T04:27:13.913Z,99.90
2018-06-02T04:29:42.516Z,99.90
2018-06-02T04:32:09.517Z,99.90
2018-06-02T04:34:36.369Z,99.90
2018-06-02T04:37:02.769Z,99.90
2018-06-02T04:39:29.912Z,99.90
2018-06-02T04:41:56.312Z,99.90
2018-06-02T04:44:22.671Z,99.90
2018-06-02T04:46:49.813Z,99.90
2018-06-02T04:49:16.953Z,99.90
2018-06-02T04:51:43.352Z,99.90
2018-06-02T04:54:09.732Z,99.90
2018-06-02T04:56:36.875Z,99.90
2018-06-02T04:59:04.005Z,99.90
2018-06-02T05:01:30.400Z,99.90
2018-06-02T05:03:56.780Z,99.90
2018-06-02T05:06:23.177Z,99.90
2018-06-02T05:08:49.601Z,99.90
2018-06-02T05:11:15.983Z,99.90
2018-06-02T05:13:42.376Z,99.90
2018-06-02T05:16:08.755Z,99.90
2018-06-02T05:18:35.892Z,99.90
2018-06-02T05:21:02.312Z,99.90
2018-06-02T05:23:28.720Z,99.90
2018-06-02T05:25:55.091Z,99.90
2018-06-02T05:28:21.500Z,99.90
2018-06-02T05:30:47.875Z,99.90
2018-06-02T05:33:14.264Z,99.90
2018-06-02T05:35:40.675Z,99.90
2018-06-02T05:38:07.792Z,99.90
2018-06-02T05:40:34.267Z,99.90
2018-06-02T05:43:00.594Z,99.90
2018-06-02T05:45:27.735Z,99.90
2018-06-02T05:47:54.860Z,99.90
2018-06-02T05:50:21.294Z,99.90
2018-06-02T05:52:47.681Z,99.90
2018-06-02T05:55:14.080Z,99.90
2018-06-02T05:57:40.506Z,99.90
2018-06-02T06:00:06.937Z,99.90
2018-06-02T06:02:33.386Z,99.90
2018-06-02T06:05:00.535Z,99.90
2018-06-02T06:07:27.660Z,99.90
2018-06-02T06:09:54.064Z,99.90
2018-06-02T06:12:20.456Z,99.90
2018-06-02T06:14:47.593Z,99.90
2018-06-02T06:17:13.985Z,99.90
2018-06-02T06:19:40.382Z,99.90
2018-06-02T06:22:06.896Z,99.90
2018-06-02T06:24:33.295Z,99.90
2018-06-02T06:26:59.719Z,99.90
2018-06-02T06:29:26.109Z,99.90
2018-06-02T06:31:52.910Z,99.90
2018-06-02T06:34:19.312Z,99.90
2018-06-02T06:36:45.705Z,99.90
2018-06-02T06:39:12.195Z,99.90
2018-06-02T06:41:38.548Z,99.90
2018-06-02T06:44:04.968Z,99.90
2018-06-02T06:46:31.438Z,99.90
2018-06-02T06:48:57.799Z,99.90
2018-06-02T06:51:24.919Z,99.90
2018-06-02T06:53:51.324Z,99.90
2018-06-02T06:56:17.707Z,99.90
2018-06-02T06:58:45.017Z,99.90
2018-06-02T07:01:11.434Z,99.90
2018-06-02T07:03:37.825Z,99.90
2018-06-02T07:06:04.212Z,99.90
2018-06-02T07:08:31.175Z,99.90
2018-06-02T07:10:57.548Z,99.90
2018-06-02T07:13:23.962Z,99.90
2018-06-02T07:15:50.383Z,99.90
2018-06-02T07:18:16.773Z,99.90
2018-06-02T07:20:43.972Z,99.90
2018-06-02T07:23:10.387Z,99.90
2018-06-02T07:25:36.804Z,99.90
2018-06-02T07:28:03.197Z,99.90
2018-06-02T07:30:29.635Z,99.90
2018-06-02T07:32:56.004Z,99.90
2018-06-02T07:35:22.398Z,99.90
2018-06-02T07:37:48.945Z,99.90
2018-06-02T07:40:16.068Z,99.90
2018-06-02T07:42:42.464Z,99.90
2018-06-02T07:45:08.871Z,99.90
2018-06-02T07:47:35.983Z,99.90
2018-06-02T07:50:02.432Z,99.90
2018-06-02T07:52:28.850Z,99.90
2018-06-02T07:54:55.228Z,99.90
2018-06-02T07:57:22.375Z,99.90
2018-06-02T07:59:49.500Z,99.90
2018-06-02T08:02:15.900Z,99.90
2018-06-02T08:04:42.303Z,99.90
2018-06-02T08:07:09.433Z,99.90
2018-06-02T08:09:35.845Z,99.90
2018-06-02T08:12:02.220Z,99.90
2018-06-02T08:14:29.366Z,99.90
2018-06-02T08:16:56.491Z,99.90
2018-06-02T08:19:22.881Z,99.90
2018-06-02T08:21:49.288Z,99.90
2018-06-02T08:24:15.764Z,99.90
2018-06-02T08:26:43.309Z,99.90
2018-06-02T08:29:09.581Z,99.90
2018-06-02T08:31:36.727Z,99.90
2018-06-02T08:37:32.519Z,99.90
2018-06-02T08:39:58.934Z,99.90
2018-06-02T08:42:25.303Z,99.90
2018-06-02T08:44:51.704Z,99.90
2018-06-02T08:47:18.117Z,99.90
2018-06-02T08:49:45.251Z,99.90
2018-06-02T08:52:12.401Z,99.90
2018-06-02T08:54:39.561Z,99.90
2018-06-02T08:57:06.682Z,99.90
2018-06-02T08:59:33.089Z,99.90
2018-06-02T09:01:59.483Z,99.90
2018-06-02T09:04:26.605Z,99.90
2018-06-02T09:06:53.000Z,99.90
2018-06-02T09:09:19.449Z,99.90
2018-06-02T09:11:45.829Z,99.90
2018-06-02T09:14:12.224Z,99.90
2018-06-02T09:16:38.621Z,99.90
2018-06-02T09:19:04.857Z,99.90
2018-06-02T09:21:31.099Z,99.90
2018-06-02T09:23:57.332Z,99.90
2018-06-02T09:26:23.556Z,99.90
2018-06-02T09:28:49.747Z,99.90
2018-06-02T09:31:16.025Z,99.90
2018-06-02T09:33:42.262Z,99.90
2018-06-02T09:36:08.494Z,99.90
2018-06-02T09:38:34.719Z,99.90
2018-06-02T09:41:00.949Z,99.90
2018-06-02T09:43:27.142Z,99.90
2018-06-02T09:45:54.106Z,99.90
2018-06-02T09:48:20.339Z,99.90
2018-06-02T09:50:46.587Z,99.90
2018-06-02T09:53:12.810Z,99.90
2018-06-02T09:55:39.040Z,99.90
2018-06-02T09:58:05.239Z,99.90
2018-06-02T10:00:32.254Z,99.90
2018-06-02T10:02:58.479Z,99.90
2018-06-02T10:05:24.684Z,99.90
2018-06-02T10:07:50.908Z,99.90
2018-06-02T10:10:17.155Z,99.90
2018-06-02T10:12:43.403Z,99.90
2018-06-02T10:15:10.381Z,99.90
2018-06-02T10:17:37.329Z,99.90
2018-06-02T10:20:04.303Z,99.90
2018-06-02T10:22:30.531Z,99.90
2018-06-02T10:24:56.734Z,99.90
2018-06-02T10:27:23.700Z,99.90
2018-06-02T10:29:49.921Z,99.90
2018-06-02T10:32:16.855Z,99.90
2018-06-02T10:34:43.814Z,99.90
2018-06-02T10:37:10.806Z,99.90
2018-06-02T10:39:37.015Z,99.90
2018-06-02T10:42:03.269Z,99.90
2018-06-02T10:44:29.509Z,99.90
2018-06-02T10:46:55.720Z,99.90
2018-06-02T10:49:21.947Z,99.90
2018-06-02T10:51:48.181Z,99.90
2018-06-02T10:54:14.394Z,99.90
2018-06-02T10:56:40.628Z,99.90
2018-06-02T10:59:06.864Z,99.90
2018-06-02T11:01:33.091Z,99.90
2018-06-02T11:03:59.310Z,99.90
2018-06-02T11:06:25.570Z,99.90
2018-06-02T11:08:51.783Z,99.90
2018-06-02T11:11:18.019Z,99.90
2018-06-02T11:13:44.234Z,99.90
2018-06-02T11:16:10.459Z,99.90
2018-06-02T11:18:36.751Z,99.90
2018-06-02T11:21:02.963Z,99.90
2018-06-02T11:23:29.228Z,99.90
2018-06-02T11:25:56.192Z,99.90
2018-06-02T11:28:22.400Z,99.90
2018-06-02T11:30:49.375Z,99.90
2018-06-02T11:33:15.600Z,99.90
2018-06-02T11:35:41.830Z,99.90
2018-06-02T11:38:08.071Z,99.90
2018-06-02T11:40:34.298Z,99.90
2018-06-02T11:43:00.498Z,99.90
2018-06-02T11:45:27.460Z,99.90
2018-06-02T11:47:53.683Z,99.90
2018-06-02T11:50:20.631Z,99.90
2018-06-02T11:52:46.858Z,99.90
2018-06-02T11:55:13.811Z,99.90
2018-06-02T11:57:40.773Z,99.90
2018-06-02T12:00:07.031Z,99.90
2018-06-02T12:02:33.226Z,99.90
2018-06-02T12:04:59.452Z,99.90
2018-06-02T12:07:25.759Z,99.90
2018-06-02T12:09:52.725Z,99.90
2018-06-02T12:12:19.691Z,99.90
2018-06-02T12:14:45.886Z,99.90
2018-06-02T12:17:12.860Z,99.90
2018-06-02T12:19:39.087Z,99.90
2018-06-02T12:22:05.283Z,99.90
2018-06-02T12:24:31.518Z,99.90
2018-06-02T12:26:57.710Z,99.90
2018-06-02T12:29:23.934Z,99.90
2018-06-02T12:31:50.167Z,99.90
2018-06-02T12:34:16.392Z,99.90
2018-06-02T12:36:42.616Z,99.90
2018-06-02T12:39:08.867Z,99.90
2018-06-02T12:41:35.107Z,99.90
2018-06-02T12:44:01.322Z,99.90
2018-06-02T12:46:27.542Z,99.90
2018-06-02T12:48:53.787Z,99.90
2018-06-02T12:51:20.003Z,99.90
2018-06-02T12:53:46.223Z,99.90
2018-06-02T12:56:12.431Z,99.90
2018-06-02T12:58:38.660Z,99.90
2018-06-02T13:01:04.858Z,99.90
2018-06-02T13:03:31.823Z,99.90
2018-06-02T13:05:58.786Z,99.90
2018-06-02T13:08:24.982Z,99.90
2018-06-02T13:10:51.196Z,99.90
2018-06-02T13:13:17.414Z,99.90
2018-06-02T13:15:43.629Z,99.90
2018-06-02T13:18:09.866Z,99.90
2018-06-02T13:20:36.115Z,99.90
2018-06-02T13:23:02.338Z,99.90
2018-06-02T13:25:28.582Z,99.90
2018-06-02T13:27:54.814Z,99.90
2018-06-02T13:30:21.011Z,99.90
2018-06-02T13:32:47.230Z,99.90
2018-06-02T13:35:13.450Z,99.90
2018-06-02T13:37:39.667Z,99.90
2018-06-02T13:40:06.654Z,99.90
2018-06-02T13:42:32.880Z,99.90
2018-06-02T13:44:59.099Z,99.90
2018-06-02T13:47:25.334Z,99.90
2018-06-02T13:49:51.554Z,99.90
2018-06-02T13:52:17.743Z,99.90
2018-06-02T13:54:43.987Z,99.60
2018-06-02T13:57:10.936Z,99.90
2018-06-02T13:59:37.907Z,99.90
2018-06-02T14:02:04.147Z,99.90
2018-06-02T14:04:30.343Z,98.30
2018-06-02T14:06:57.310Z,99.90
2018-06-02T14:09:23.553Z,99.90
2018-06-02T14:11:49.747Z,98.80
2018-06-02T14:14:16.723Z,99.90
2018-06-02T14:16:43.019Z,99.90
2018-06-02T14:19:09.958Z,95.80
2018-06-02T14:21:36.179Z,95.80
2018-06-02T14:24:02.442Z,97.20
2018-06-02T14:26:29.391Z,98.00
2018-06-02T14:28:55.611Z,97.90
2018-06-02T14:31:22.579Z,97.10
2018-06-02T14:33:48.770Z,97.10
2018-06-02T14:36:14.988Z,97.50
2018-06-02T14:38:41.211Z,96.60
2018-06-02T14:41:07.411Z,97.40
2018-06-02T14:43:33.663Z,98.80
2018-06-02T14:46:00.097Z,97.60
2018-06-02T14:48:26.477Z,99.90
2018-06-02T14:50:52.920Z,99.90
2018-06-02T14:53:19.325Z,99.70
2018-06-02T14:55:45.684Z,99.50
2018-06-02T14:58:12.834Z,99.90
2018-06-02T15:00:39.981Z,98.80
2018-06-02T15:03:07.088Z,98.60
2018-06-02T15:05:33.476Z,98.60
2018-06-02T15:07:59.885Z,99.50
2018-06-02T15:10:27.005Z,99.90
2018-06-02T15:12:53.404Z,99.90
2018-06-02T15:15:19.632Z,99.80
2018-06-02T15:17:46.749Z,99.90
2018-06-02T15:20:13.723Z,99.90
2018-06-02T15:22:39.950Z,99.90
2018-06-02T15:25:06.912Z,99.90
2018-06-02T15:27:33.151Z,99.90
2018-06-02T15:29:59.384Z,99.90
2018-06-02T15:32:25.586Z,99.90
2018-06-02T15:34:51.819Z,99.90
2018-06-02T15:37:18.045Z,99.90
2018-06-02T15:39:44.983Z,99.90
2018-06-02T15:42:11.973Z,99.90
2018-06-02T15:44:38.190Z,99.90
2018-06-02T15:47:04.407Z,98.50
2018-06-02T15:49:30.624Z,99.90
2018-06-02T15:51:57.562Z,99.90
2018-06-02T15:54:24.526Z,99.90
2018-06-02T15:56:50.745Z,99.90
2018-06-02T15:59:17.683Z,99.90
2018-06-02T16:01:44.640Z,99.90
2018-06-02T16:04:11.604Z,99.30
2018-06-02T16:06:37.815Z,99.30
2018-06-02T16:09:04.805Z,99.90
2018-06-02T16:11:31.026Z,99.90
2018-06-02T16:13:57.228Z,99.00
2018-06-02T16:16:24.182Z,99.30
2018-06-02T16:18:50.397Z,99.20
2018-06-02T16:21:17.338Z,97.80
2018-06-02T16:23:44.317Z,97.20
2018-06-02T16:26:10.532Z,97.20
2018-06-02T16:28:37.471Z,96.70
2018-06-02T16:31:04.452Z,93.30
2018-06-02T16:33:30.860Z,93.20
2018-06-02T16:35:57.256Z,91.50
2018-06-02T16:38:23.643Z,93.40
2018-06-02T16:40:50.032Z,92.80
2018-06-02T16:43:16.407Z,93.00
2018-06-02T16:45:42.835Z,92.40
2018-06-02T16:48:09.225Z,93.10
2018-06-02T16:50:35.594Z,90.00
2018-06-02T16:53:02.749Z,89.50
2018-06-02T16:55:29.170Z,89.40
2018-06-02T16:57:55.553Z,89.10
2018-06-02T17:00:21.951Z,90.40
2018-06-02T17:02:48.344Z,89.80
2018-06-02T17:05:14.720Z,87.80
2018-06-02T17:07:41.133Z,89.80
2018-06-02T17:10:08.267Z,89.80
2018-06-02T17:12:34.648Z,89.70
2018-06-02T17:15:01.068Z,88.80
2018-06-02T17:17:28.212Z,86.70
2018-06-02T17:19:55.406Z,87.40
2018-06-02T17:22:22.512Z,87.80
2018-06-02T17:24:49.637Z,83.50
2018-06-02T17:27:16.042Z,83.30
2018-06-02T17:29:42.431Z,84.20
2018-06-02T17:32:09.603Z,84.60
2018-06-02T17:34:35.984Z,84.50
2018-06-02T17:37:02.402Z,84.00
2018-06-02T17:39:28.777Z,83.50
2018-06-02T17:41:55.976Z,85.30
2018-06-02T17:44:22.372Z,85.20
2018-06-02T17:46:49.481Z,86.20
2018-06-02T17:49:15.875Z,86.10
2018-06-02T17:51:42.272Z,87.70
2018-06-02T17:54:08.644Z,88.70
2018-06-02T17:56:35.047Z,90.20
2018-06-02T17:59:02.199Z,90.70
2018-06-02T18:01:28.588Z,90.60
2018-06-02T18:03:54.995Z,91.30
2018-06-02T18:06:21.400Z,91.30
2018-06-02T18:08:48.533Z,92.00
2018-06-02T18:11:14.934Z,92.00
2018-06-02T18:13:41.348Z,92.80
2018-06-02T18:16:07.727Z,95.20
2018-06-02T18:18:34.118Z,96.80
2018-06-02T18:21:00.341Z,97.30
2018-06-02T18:23:27.447Z,97.80
2018-06-02T18:25:53.845Z,97.80
2018-06-02T18:28:20.239Z,97.50
2018-06-02T18:30:47.372Z,97.90
2018-06-02T18:33:13.769Z,97.90
2018-06-02T18:35:40.157Z,98.00
2018-06-02T18:38:07.161Z,99.60
2018-06-02T18:40:33.568Z,99.20
2018-06-02T18:42:59.969Z,99.90
2018-06-02T18:45:26.188Z,99.90
2018-06-02T18:47:52.450Z,99.90
2018-06-02T18:50:19.571Z,99.90
2018-06-02T18:52:46.692Z,99.90
2018-06-02T18:55:13.087Z,99.90
2018-06-02T18:57:40.222Z,99.90
2018-06-02T19:00:07.338Z,99.90
2018-06-02T19:02:33.748Z,99.90
2018-06-02T19:05:00.166Z,99.90
2018-06-02T19:07:26.375Z,99.90
2018-06-02T19:09:53.340Z,99.90
2018-06-02T19:12:19.538Z,99.90
2018-06-02T19:14:45.764Z,99.90
2018-06-02T19:17:12.773Z,99.90
2018-06-02T19:19:39.010Z,99.90
2018-06-02T19:22:05.229Z,99.90
2018-06-02T19:24:31.459Z,99.90
2018-06-02T19:26:58.615Z,99.90
2018-06-02T19:29:26.748Z,99.90
2018-06-02T19:31:56.070Z,99.90
2018-06-02T19:34:26.160Z,99.90
2018-06-02T19:36:56.139Z,99.90
2018-06-02T19:39:25.260Z,99.90
2018-06-02T19:41:51.526Z,99.90
2018-06-02T19:44:20.896Z,99.90
2018-06-02T19:46:47.285Z,99.90
2018-06-02T19:49:13.748Z,99.90
2018-06-02T19:51:43.860Z,99.90
2018-06-02T19:54:10.392Z,99.90
2018-06-02T19:56:36.572Z,99.90
2018-06-02T19:59:06.412Z,99.90
2018-06-02T20:01:32.858Z,99.90
2018-06-02T20:03:59.073Z,99.90
2018-06-02T20:06:29.226Z,99.90
2018-06-02T20:08:59.169Z,99.90
2018-06-02T20:11:25.564Z,99.90
2018-06-02T20:13:51.794Z,99.90
2018-06-02T20:16:21.654Z,99.90
2018-06-02T20:18:50.138Z,99.90
2018-06-02T20:21:18.213Z,99.90
2018-06-02T20:23:44.428Z,99.90
2018-06-02T20:26:14.365Z,99.90
2018-06-02T20:28:45.157Z,99.90
2018-06-02T20:31:11.499Z,99.90
2018-06-02T20:33:38.725Z,99.90
2018-06-02T20:38:34.688Z,99.90
2018-06-02T20:41:02.610Z,99.90
2018-06-02T20:45:58.258Z,99.90
2018-06-02T20:48:26.224Z,99.90
2018-06-02T20:53:21.863Z,99.90
2018-06-02T20:55:49.767Z,99.90
2018-06-02T20:58:17.656Z,99.90
2018-06-02T21:00:45.545Z,99.90
2018-06-02T21:03:13.473Z,99.90
2018-06-02T21:05:41.349Z,99.90
2018-06-02T21:08:09.256Z,99.90
2018-06-02T21:13:04.971Z,99.90
2018-06-02T21:15:32.881Z,99.90
2018-06-02T21:18:00.792Z,99.90
2018-06-02T21:20:28.688Z,99.90
2018-06-02T21:22:56.583Z,99.90
2018-06-02T21:27:52.168Z,99.90
2018-06-02T21:30:20.080Z,99.90
2018-06-02T21:35:15.706Z,99.90
2018-06-02T21:40:11.488Z,99.90
2018-06-02T21:42:39.639Z,99.90
2018-06-02T21:45:07.731Z,99.90
2018-06-02T21:47:35.816Z,99.90
2018-06-02T21:50:04.061Z,99.90
2018-06-02T21:52:32.163Z,99.90
2018-06-02T21:55:00.227Z,99.90
2018-06-02T21:57:28.285Z,99.90
2018-06-02T21:59:56.472Z,99.90
2018-06-02T22:02:24.555Z,99.90
2018-06-02T22:04:52.635Z,99.90
2018-06-02T22:07:20.708Z,99.90
2018-06-02T22:09:49.049Z,99.90
2018-06-02T22:14:45.128Z,99.90
2018-06-02T22:17:13.167Z,99.90
2018-06-02T22:19:41.383Z,99.90
2018-06-02T22:22:09.542Z,99.90
2018-06-02T22:24:37.699Z,99.90
2018-06-02T22:27:05.805Z,99.90
2018-06-02T22:29:33.872Z,99.90
2018-06-02T22:32:01.920Z,99.90
2018-06-02T22:34:30.018Z,99.90
2018-06-02T22:36:58.081Z,99.90
2018-06-02T22:39:26.144Z,99.90
2018-06-02T22:41:54.224Z,99.90
2018-06-02T22:44:22.408Z,99.90
2018-06-02T22:46:50.465Z,99.90
2018-06-02T22:49:18.559Z,99.90
2018-06-02T22:51:57.394Z,99.90
2018-06-02T22:54:25.673Z,99.90
2018-06-02T22:56:54.135Z,99.90
2018-06-02T22:59:22.392Z,99.90
2018-06-02T23:01:50.713Z,99.90
2018-06-02T23:04:19.048Z,99.90
2018-06-02T23:11:43.089Z,99.90
2018-06-02T23:14:11.244Z,99.90
2018-06-02T23:16:39.449Z,99.90
2018-06-02T23:19:07.493Z,99.90
2018-06-02T23:24:18.838Z,99.90
2018-06-02T23:26:46.907Z,99.90
2018-06-02T23:29:14.934Z,99.90
2018-06-02T23:34:10.915Z,99.90
2018-06-02T23:36:38.957Z,99.90
2018-06-02T23:41:35.018Z,99.90
2018-06-02T23:44:03.081Z,99.90
2018-06-02T23:46:31.275Z,99.90
2018-06-02T23:48:59.448Z,99.90
2018-06-02T23:51:27.494Z,99.90
2018-06-02T23:56:23.347Z,99.90
2018-06-02T23:58:51.428Z,99.90
